createdAt,value
2018-02-27T00:01:55.477Z,-6.40
2018-02-27T00:04:22.945Z,-6.40
2018-02-27T00:06:50.401Z,-6.40
2018-02-27T00:09:17.878Z,-6.40
2018-02-27T00:11:46.102Z,-6.50
2018-02-27T00:14:13.567Z,-6.50
2018-02-27T00:16:41.029Z,-6.40
2018-02-27T00:19:08.486Z,-6.40
2018-02-27T00:21:35.945Z,-6.50
2018-02-27T00:24:03.401Z,-6.50
2018-02-27T00:26:30.862Z,-6.50
2018-02-27T00:28:58.317Z,-6.50
2018-02-27T00:31:25.782Z,-6.50
2018-02-27T00:33:53.242Z,-6.50
2018-02-27T00:36:20.706Z,-6.50
2018-02-27T00:38:48.166Z,-6.60
2018-02-27T00:41:15.643Z,-6.60
2018-02-27T00:43:43.861Z,-6.60
2018-02-27T00:46:11.321Z,-6.70
2018-02-27T00:48:38.769Z,-6.60
2018-02-27T00:51:06.234Z,-6.60
2018-02-27T00:53:33.689Z,-6.70
2018-02-27T00:56:01.154Z,-6.70
2018-02-27T00:58:28.607Z,-6.70
2018-02-27T01:00:56.065Z,-6.70
2018-02-27T01:03:23.514Z,-6.70
2018-02-27T01:05:50.982Z,-6.80
2018-02-27T01:08:18.438Z,-6.80
2018-02-27T01:10:45.901Z,-6.90
2018-02-27T01:13:13.392Z,-6.90
2018-02-27T01:15:40.815Z,-6.90
2018-02-27T01:18:08.282Z,-6.90
2018-02-27T01:20:35.738Z,-6.90
2018-02-27T01:23:03.200Z,-6.90
2018-02-27T01:25:30.659Z,-6.90
2018-02-27T01:27:58.128Z,-6.90
2018-02-27T01:30:26.359Z,-6.90
2018-02-27T01:32:53.822Z,-7.00
2018-02-27T01:35:21.284Z,-7.00
2018-02-27T01:37:48.747Z,-7.00
2018-02-27T01:40:16.202Z,-7.00
2018-02-27T01:42:43.662Z,-7.00
2018-02-27T01:45:11.121Z,-7.00
2018-02-27T01:47:38.590Z,-7.00
2018-02-27T01:50:06.063Z,-7.00
2018-02-27T01:52:34.289Z,-7.00
2018-02-27T01:55:01.745Z,-7.00
2018-02-27T01:57:29.201Z,-7.00
2018-02-27T01:59:56.659Z,-7.00
2018-02-27T02:02:24.122Z,-7.00
2018-02-27T02:04:51.582Z,-7.10
2018-02-27T02:07:19.058Z,-7.10
2018-02-27T02:09:46.517Z,-7.10
2018-02-27T02:12:13.977Z,-7.10
2018-02-27T02:14:41.441Z,-7.10
2018-02-27T02:17:09.665Z,-7.00
2018-02-27T02:19:37.138Z,-7.10
2018-02-27T02:22:04.590Z,-7.10
2018-02-27T02:24:32.075Z,-7.10
2018-02-27T02:26:59.532Z,-7.10
2018-02-27T02:29:26.993Z,-7.10
2018-02-27T02:31:54.455Z,-7.20
2018-02-27T02:34:21.911Z,-7.20
2018-02-27T02:36:49.363Z,-7.20
2018-02-27T02:39:16.834Z,-7.20
2018-02-27T02:41:45.058Z,-7.20
2018-02-27T02:44:12.527Z,-7.20
2018-02-27T02:46:39.989Z,-7.20
2018-02-27T02:49:07.458Z,-7.30
2018-02-27T02:51:34.926Z,-7.20
2018-02-27T02:54:02.409Z,-7.20
2018-02-27T02:56:29.870Z,-7.20
2018-02-27T02:58:57.338Z,-7.30
2018-02-27T03:01:24.790Z,-7.30
2018-02-27T03:03:52.258Z,-7.30
2018-02-27T03:06:19.720Z,-7.20
2018-02-27T03:08:47.193Z,-7.20
2018-02-27T03:11:14.658Z,-7.20
2018-02-27T03:13:42.125Z,-7.20
2018-02-27T03:16:09.583Z,-7.20
2018-02-27T03:18:37.042Z,-7.20
2018-02-27T03:21:04.497Z,-7.20
2018-02-27T03:23:31.972Z,-7.30
2018-02-27T03:26:00.200Z,-7.20
2018-02-27T03:28:27.673Z,-7.20
2018-02-27T03:30:55.130Z,-7.30
2018-02-27T03:33:22.590Z,-7.30
2018-02-27T03:35:50.054Z,-7.30
2018-02-27T03:38:17.522Z,-7.30
2018-02-27T03:40:45.772Z,-7.30
2018-02-27T03:43:13.222Z,-7.30
2018-02-27T03:45:40.689Z,-7.30
2018-02-27T03:48:08.150Z,-7.30
2018-02-27T03:50:35.614Z,-7.30
2018-02-27T03:53:03.082Z,-7.30
2018-02-27T03:55:30.565Z,-7.30
2018-02-27T03:57:58.027Z,-7.40
2018-02-27T04:00:25.501Z,-7.40
2018-02-27T04:02:52.968Z,-7.50
2018-02-27T04:05:20.434Z,-7.50
2018-02-27T04:07:47.902Z,-7.50
2018-02-27T04:10:15.373Z,-7.50
2018-02-27T04:12:42.839Z,-7.40
2018-02-27T04:15:11.075Z,-7.40
2018-02-27T04:17:38.533Z,-7.40
2018-02-27T04:20:06.002Z,-7.40
2018-02-27T04:22:33.456Z,-7.50
2018-02-27T04:25:00.918Z,-7.50
2018-02-27T04:27:28.389Z,-7.50
2018-02-27T04:29:55.854Z,-7.60
2018-02-27T04:32:23.311Z,-7.60
2018-02-27T04:34:51.541Z,-7.60
2018-02-27T04:37:19.012Z,-7.70
2018-02-27T04:39:46.473Z,-7.60
2018-02-27T04:42:13.937Z,-7.70
2018-02-27T04:44:41.399Z,-7.70
2018-02-27T04:47:08.869Z,-7.70
2018-02-27T04:49:36.318Z,-7.70
2018-02-27T04:52:03.781Z,-7.70
2018-02-27T04:54:32.018Z,-7.70
2018-02-27T04:56:59.485Z,-7.80
2018-02-27T04:59:26.954Z,-7.70
2018-02-27T05:01:54.417Z,-7.80
2018-02-27T05:04:21.887Z,-7.80
2018-02-27T05:06:50.122Z,-7.80
2018-02-27T05:09:17.591Z,-7.80
2018-02-27T05:11:45.067Z,-7.80
2018-02-27T05:14:13.314Z,-7.80
2018-02-27T05:16:40.782Z,-7.80
2018-02-27T05:19:08.250Z,-7.80
2018-02-27T05:21:35.709Z,-7.70
2018-02-27T05:24:03.174Z,-7.70
2018-02-27T05:26:30.633Z,-7.70
2018-02-27T05:28:58.858Z,-7.80
2018-02-27T05:31:26.325Z,-7.80
2018-02-27T05:33:53.806Z,-7.80
2018-02-27T05:36:21.269Z,-7.80
2018-02-27T05:38:48.725Z,-7.80
2018-02-27T05:41:16.181Z,-7.80
2018-02-27T05:43:43.643Z,-7.80
2018-02-27T05:46:11.097Z,-7.80
2018-02-27T05:48:39.331Z,-7.80
2018-02-27T05:51:06.802Z,-7.80
2018-02-27T05:53:34.258Z,-7.80
2018-02-27T05:56:01.722Z,-7.80
2018-02-27T05:58:29.234Z,-7.80
2018-02-27T06:00:56.702Z,-7.90
2018-02-27T06:03:24.170Z,-7.90
2018-02-27T06:05:51.621Z,-7.90
2018-02-27T06:08:19.078Z,-7.90
2018-02-27T06:10:46.536Z,-7.90
2018-02-27T06:13:13.997Z,-7.90
2018-02-27T06:15:41.545Z,-7.90
2018-02-27T06:18:09.006Z,-7.90
2018-02-27T06:20:36.461Z,-7.90
2018-02-27T06:23:03.942Z,-7.90
2018-02-27T06:25:31.402Z,-7.90
2018-02-27T06:27:58.866Z,-7.80
2018-02-27T06:30:26.323Z,-7.80
2018-02-27T06:32:53.791Z,-7.80
2018-02-27T06:35:21.254Z,-7.70
2018-02-27T06:37:48.710Z,-7.70
2018-02-27T06:40:16.169Z,-7.70
2018-02-27T06:42:44.401Z,-7.60
2018-02-27T06:45:11.859Z,-7.60
2018-02-27T06:47:39.339Z,-7.60
2018-02-27T06:50:06.818Z,-7.50
2018-02-27T06:52:35.042Z,-7.50
2018-02-27T06:55:02.499Z,-7.50
2018-02-27T06:57:29.970Z,-7.50
2018-02-27T06:59:57.434Z,-7.40
2018-02-27T07:02:24.905Z,-7.40
2018-02-27T07:04:52.369Z,-7.30
2018-02-27T07:07:19.836Z,-7.30
2018-02-27T07:09:48.061Z,-7.20
2018-02-27T07:12:15.537Z,-7.20
2018-02-27T07:14:42.994Z,-7.10
2018-02-27T07:17:10.469Z,-7.10
2018-02-27T07:19:37.926Z,-7.00
2018-02-27T07:22:05.401Z,-7.00
2018-02-27T07:24:33.650Z,-7.00
2018-02-27T07:27:01.127Z,-7.00
2018-02-27T07:29:29.353Z,-7.00
2018-02-27T07:31:56.825Z,-7.00
2018-02-27T07:34:24.295Z,-6.90
2018-02-27T07:36:51.771Z,-6.90
2018-02-27T07:39:20.002Z,-6.90
2018-02-27T07:41:47.466Z,-7.00
2018-02-27T07:44:14.939Z,-6.90
2018-02-27T07:46:42.405Z,-6.90
2018-02-27T07:49:09.874Z,-7.00
2018-02-27T07:51:38.105Z,-7.00
2018-02-27T07:54:05.574Z,-7.00
2018-02-27T07:56:33.037Z,-7.00
2018-02-27T07:59:00.515Z,-7.00
2018-02-27T08:01:28.744Z,-7.00
2018-02-27T08:03:56.239Z,-7.00
2018-02-27T08:06:23.697Z,-7.00
2018-02-27T08:08:51.957Z,-6.90
2018-02-27T08:11:19.410Z,-6.90
2018-02-27T08:13:46.917Z,-6.90
2018-02-27T08:16:15.152Z,-6.90
2018-02-27T08:18:42.610Z,-6.90
2018-02-27T08:21:10.073Z,-6.90
2018-02-27T08:23:38.308Z,-6.80
2018-02-27T08:26:05.775Z,-6.80
2018-02-27T08:28:33.250Z,-6.70
2018-02-27T08:31:00.703Z,-6.60
2018-02-27T08:33:28.179Z,-6.50
2018-02-27T08:35:55.643Z,-6.50
2018-02-27T08:38:23.881Z,-6.30
2018-02-27T08:40:51.345Z,-6.30
2018-02-27T08:43:18.820Z,-6.30
2018-02-27T08:45:46.273Z,-6.30
2018-02-27T08:48:13.740Z,-6.30
2018-02-27T08:50:41.970Z,-6.30
2018-02-27T08:53:09.442Z,-6.30
2018-02-27T08:55:37.670Z,-6.20
2018-02-27T08:58:05.137Z,-6.30
2018-02-27T09:00:32.592Z,-6.20
2018-02-27T09:03:00.042Z,-6.10
2018-02-27T09:05:27.521Z,-6.10
2018-02-27T09:07:54.980Z,-6.10
2018-02-27T09:10:22.458Z,-6.10
2018-02-27T09:12:49.915Z,-6.10
2018-02-27T09:15:17.393Z,-6.10
2018-02-27T09:17:44.858Z,-6.10
2018-02-27T09:20:13.118Z,-6.10
2018-02-27T09:22:40.558Z,-6.10
2018-02-27T09:25:08.021Z,-6.00
2018-02-27T09:27:35.485Z,-6.00
2018-02-27T09:30:02.953Z,-5.90
2018-02-27T09:32:31.176Z,-5.80
2018-02-27T09:34:58.681Z,-5.80
2018-02-27T09:37:26.113Z,-5.70
2018-02-27T09:39:53.577Z,-5.80
2018-02-27T09:42:21.045Z,-5.70
2018-02-27T09:44:48.511Z,-5.60
2018-02-27T09:47:15.975Z,-5.60
2018-02-27T09:49:44.208Z,-5.50
2018-02-27T09:52:11.709Z,-5.50
2018-02-27T09:54:39.958Z,-5.40
2018-02-27T09:57:07.438Z,-5.40
2018-02-27T09:59:35.670Z,-5.40
2018-02-27T10:02:03.140Z,-5.40
2018-02-27T10:04:30.614Z,-5.40
2018-02-27T10:06:58.085Z,-5.30
2018-02-27T10:09:26.316Z,-5.30
2018-02-27T10:11:53.769Z,-5.30
2018-02-27T10:14:21.237Z,-5.30
2018-02-27T10:16:48.705Z,-5.20
2018-02-27T10:19:16.173Z,-5.10
2018-02-27T10:21:43.645Z,-5.10
2018-02-27T10:24:11.888Z,-4.90
2018-02-27T10:26:39.364Z,-4.90
2018-02-27T10:29:06.829Z,-4.80
2018-02-27T10:31:35.058Z,-4.80
2018-02-27T10:34:02.543Z,-4.80
2018-02-27T10:36:30.022Z,-4.80
2018-02-27T10:38:58.254Z,-4.90
2018-02-27T10:41:25.735Z,-4.90
2018-02-27T10:43:53.200Z,-5.00
2018-02-27T10:46:20.666Z,-5.00
2018-02-27T10:48:48.899Z,-5.00
2018-02-27T10:51:16.371Z,-5.00
2018-02-27T10:53:43.837Z,-5.00
2018-02-27T10:56:11.305Z,-5.00
2018-02-27T10:58:38.760Z,-4.90
2018-02-27T11:01:08.988Z,-4.70
2018-02-27T11:03:36.409Z,-4.80
2018-02-27T11:06:03.885Z,-4.70
2018-02-27T11:08:31.342Z,-4.60
2018-02-27T11:10:58.816Z,-4.50
2018-02-27T11:13:27.048Z,-4.30
2018-02-27T11:15:54.518Z,-4.30
2018-02-27T11:18:21.985Z,-4.20
2018-02-27T11:20:49.459Z,-4.20
2018-02-27T11:23:17.684Z,-4.20
2018-02-27T11:25:45.150Z,-4.20
2018-02-27T11:28:12.609Z,-4.10
2018-02-27T11:30:40.850Z,-4.00
2018-02-27T11:33:08.317Z,-4.00
2018-02-27T11:35:35.777Z,-4.00
2018-02-27T11:38:03.236Z,-3.90
2018-02-27T11:40:30.709Z,-3.90
2018-02-27T11:42:58.173Z,-3.90
2018-02-27T11:45:25.655Z,-3.90
2018-02-27T11:47:53.108Z,-3.80
2018-02-27T11:50:20.589Z,-3.80
2018-02-27T11:52:48.809Z,-3.90
2018-02-27T11:55:16.288Z,-3.90
2018-02-27T11:57:43.749Z,-3.90
2018-02-27T12:00:11.217Z,-3.90
2018-02-27T12:02:39.437Z,-3.90
2018-02-27T12:05:06.918Z,-3.90
2018-02-27T12:07:35.145Z,-3.90
2018-02-27T12:10:02.609Z,-3.90
2018-02-27T12:12:30.085Z,-3.80
2018-02-27T12:14:57.551Z,-3.80
2018-02-27T12:17:25.036Z,-3.80
2018-02-27T12:19:52.487Z,-3.80
2018-02-27T12:22:19.965Z,-3.70
2018-02-27T12:24:48.190Z,-3.70
2018-02-27T12:27:15.661Z,-3.80
2018-02-27T12:29:43.121Z,-3.70
2018-02-27T12:32:10.589Z,-3.70
2018-02-27T12:34:38.053Z,-3.70
2018-02-27T12:37:05.551Z,-3.90
2018-02-27T12:39:33.017Z,-3.90
2018-02-27T12:42:00.489Z,-3.90
2018-02-27T12:44:27.954Z,-3.90
2018-02-27T12:46:55.420Z,-3.90
2018-02-27T12:49:23.643Z,-3.80
2018-02-27T12:51:51.885Z,-3.70
2018-02-27T12:54:19.335Z,-3.80
2018-02-27T12:56:46.858Z,-3.70
2018-02-27T12:59:14.311Z,-3.60
2018-02-27T13:01:41.778Z,-3.60
2018-02-27T13:04:09.238Z,-3.50
2018-02-27T13:06:36.705Z,-3.50
2018-02-27T13:09:04.172Z,-3.40
2018-02-27T13:11:31.633Z,-3.40
2018-02-27T13:13:59.088Z,-3.30
2018-02-27T13:16:26.563Z,-3.20
2018-02-27T13:18:54.049Z,-3.00
2018-02-27T13:21:22.282Z,-3.00
2018-02-27T13:23:49.741Z,-3.00
2018-02-27T13:26:17.227Z,-3.10
2018-02-27T13:28:45.459Z,-3.30
2018-02-27T13:31:12.921Z,-3.30
2018-02-27T13:33:40.381Z,-3.40
2018-02-27T13:36:07.846Z,-3.50
2018-02-27T13:38:35.305Z,-3.50
2018-02-27T13:41:02.762Z,-3.60
2018-02-27T13:43:30.241Z,-3.60
2018-02-27T13:45:58.461Z,-3.50
2018-02-27T13:48:25.932Z,-3.50
2018-02-27T13:50:53.398Z,-3.40
2018-02-27T13:53:20.862Z,-3.30
2018-02-27T13:55:48.326Z,-3.20
2018-02-27T13:58:15.817Z,-3.10
2018-02-27T14:00:43.277Z,-3.00
2018-02-27T14:03:10.744Z,-3.10
2018-02-27T14:05:38.221Z,-3.20
2018-02-27T14:08:05.685Z,-3.30
2018-02-27T14:10:33.181Z,-3.30
2018-02-27T14:13:01.423Z,-3.20
2018-02-27T14:15:28.888Z,-3.20
2018-02-27T14:17:56.357Z,-3.20
2018-02-27T14:20:24.590Z,-3.20
2018-02-27T14:22:52.061Z,-3.30
2018-02-27T14:25:19.522Z,-3.30
2018-02-27T14:27:46.990Z,-3.30
2018-02-27T14:30:14.453Z,-3.30
2018-02-27T14:32:41.920Z,-3.30
2018-02-27T14:35:10.153Z,-3.30
2018-02-27T14:37:37.616Z,-3.40
2018-02-27T14:40:05.077Z,-3.40
2018-02-27T14:42:32.540Z,-3.40
2018-02-27T14:45:00.000Z,-3.40
2018-02-27T14:47:27.465Z,-3.40
2018-02-27T14:49:54.937Z,-3.40
2018-02-27T14:52:23.170Z,-3.40
2018-02-27T14:54:50.633Z,-3.40
2018-02-27T14:57:18.100Z,-3.30
2018-02-27T14:59:45.560Z,-3.30
2018-02-27T15:02:13.045Z,-3.20
2018-02-27T15:04:41.274Z,-3.20
2018-02-27T15:07:08.742Z,-3.20
2018-02-27T15:09:36.200Z,-3.30
2018-02-27T15:12:03.673Z,-3.20
2018-02-27T15:14:31.137Z,-3.30
2018-02-27T15:16:59.368Z,-3.30
2018-02-27T15:19:26.915Z,-3.30
2018-02-27T15:21:54.374Z,-3.30
2018-02-27T15:24:21.834Z,-3.30
2018-02-27T15:26:49.309Z,-3.20
2018-02-27T15:29:16.846Z,-3.20
2018-02-27T15:31:44.297Z,-3.20
2018-02-27T15:34:11.795Z,-3.30
2018-02-27T15:36:39.262Z,-3.30
2018-02-27T15:39:06.734Z,-3.30
2018-02-27T15:41:34.959Z,-3.30
2018-02-27T15:44:02.425Z,-3.30
2018-02-27T15:46:29.898Z,-3.30
2018-02-27T15:48:57.370Z,-3.30
2018-02-27T15:51:24.873Z,-3.30
2018-02-27T15:53:52.304Z,-3.40
2018-02-27T15:56:20.548Z,-3.30
2018-02-27T15:58:48.018Z,-3.40
2018-02-27T16:01:15.509Z,-3.40
2018-02-27T16:03:42.933Z,-3.40
2018-02-27T16:06:11.164Z,-3.40
2018-02-27T16:08:38.643Z,-3.40
2018-02-27T16:11:06.104Z,-3.50
2018-02-27T16:13:33.627Z,-3.50
2018-02-27T16:16:01.087Z,-3.50
2018-02-27T16:18:28.553Z,-3.50
2018-02-27T16:20:56.035Z,-3.50
2018-02-27T16:23:23.493Z,-3.50
2018-02-27T16:25:50.966Z,-3.60
2018-02-27T16:28:19.206Z,-3.70
2018-02-27T16:30:46.655Z,-3.70
2018-02-27T16:33:14.122Z,-3.80
2018-02-27T16:35:41.585Z,-3.80
2018-02-27T16:38:09.054Z,-3.90
2018-02-27T16:40:36.514Z,-3.90
2018-02-27T16:43:03.977Z,-4.00
2018-02-27T16:45:32.223Z,-4.10
2018-02-27T16:47:59.682Z,-4.10
2018-02-27T16:50:27.151Z,-4.10
2018-02-27T16:52:54.627Z,-4.20
2018-02-27T16:55:22.083Z,-4.20
2018-02-27T16:57:50.309Z,-4.40
2018-02-27T17:00:17.794Z,-4.40
2018-02-27T17:02:45.256Z,-4.50
2018-02-27T17:05:12.728Z,-4.60
2018-02-27T17:07:40.967Z,-4.60
2018-02-27T17:10:08.442Z,-4.60
2018-02-27T17:12:35.926Z,-4.60
2018-02-27T17:15:04.154Z,-4.70
2018-02-27T17:17:31.621Z,-4.70
2018-02-27T17:19:59.090Z,-4.70
2018-02-27T17:22:26.548Z,-4.70
2018-02-27T17:24:54.023Z,-4.80
2018-02-27T17:27:22.335Z,-4.80
2018-02-27T17:29:49.790Z,-4.80
2018-02-27T17:32:17.253Z,-4.90
2018-02-27T17:34:44.728Z,-4.90
2018-02-27T17:37:12.209Z,-4.90
2018-02-27T17:39:39.676Z,-4.90
2018-02-27T17:42:07.911Z,-5.00
2018-02-27T17:44:35.388Z,-5.00
2018-02-27T17:47:02.833Z,-5.00
2018-02-27T17:49:30.309Z,-5.00
2018-02-27T17:51:57.763Z,-5.00
2018-02-27T17:54:25.236Z,-5.00
2018-02-27T17:56:52.685Z,-5.10
2018-02-27T17:59:20.618Z,-5.10
2018-02-27T18:01:48.065Z,-5.10
2018-02-27T18:04:15.535Z,-5.10
2018-02-27T18:06:44.887Z,-5.10
2018-02-27T18:09:14.411Z,-5.10
2018-02-27T18:11:44.678Z,-5.20
2018-02-27T18:14:12.142Z,-5.20
2018-02-27T18:16:41.407Z,-5.20
2018-02-27T18:19:09.042Z,-5.20
2018-02-27T18:21:38.224Z,-5.30
2018-02-27T18:24:05.891Z,-5.30
2018-02-27T18:26:33.349Z,-5.30
2018-02-27T18:29:00.816Z,-5.30
2018-02-27T18:31:30.230Z,-5.30
2018-02-27T18:33:59.824Z,-5.30
2018-02-27T18:36:27.281Z,-5.30
2018-02-27T18:38:54.736Z,-5.40
2018-02-27T18:41:22.201Z,-5.40
2018-02-27T18:43:49.735Z,-5.40
2018-02-27T18:46:17.162Z,-5.40
2018-02-27T18:48:44.630Z,-5.40
2018-02-27T18:51:12.099Z,-5.40
2018-02-27T18:53:40.343Z,-5.40
2018-02-27T18:56:07.808Z,-5.50
2018-02-27T18:58:35.276Z,-5.40
2018-02-27T19:01:02.802Z,-5.40
2018-02-27T19:03:30.285Z,-5.40
2018-02-27T19:05:57.762Z,-5.50
2018-02-27T19:08:25.308Z,-5.40
2018-02-27T19:10:52.736Z,-5.50
2018-02-27T19:13:20.193Z,-5.50
2018-02-27T19:15:47.661Z,-5.50
2018-02-27T19:18:15.123Z,-5.50
2018-02-27T19:20:42.589Z,-5.60
2018-02-27T19:23:10.098Z,-5.60
2018-02-27T19:25:37.569Z,-5.60
2018-02-27T19:28:05.042Z,-5.60
2018-02-27T19:30:32.509Z,-5.60
2018-02-27T19:32:59.970Z,-5.70
2018-02-27T19:35:27.450Z,-5.70
2018-02-27T19:37:55.697Z,-5.70
2018-02-27T19:40:23.209Z,-5.70
2018-02-27T19:42:50.629Z,-5.70
2018-02-27T19:45:18.869Z,-5.80
2018-02-27T19:47:46.333Z,-5.80
2018-02-27T19:50:13.814Z,-5.80
2018-02-27T19:52:42.043Z,-5.80
2018-02-27T19:55:09.592Z,-5.80
2018-02-27T19:57:37.074Z,-5.90
2018-02-27T20:00:04.532Z,-5.90
2018-02-27T20:02:32.009Z,-5.90
2018-02-27T20:04:59.485Z,-6.00
2018-02-27T20:07:27.730Z,-6.00
2018-02-27T20:09:55.186Z,-6.00
2018-02-27T20:12:22.674Z,-6.10
2018-02-27T20:14:50.913Z,-6.10
2018-02-27T20:17:18.379Z,-6.10
2018-02-27T20:19:45.843Z,-6.10
2018-02-27T20:22:13.305Z,-6.20
2018-02-27T20:24:40.930Z,-6.20
2018-02-27T20:27:08.418Z,-6.20
2018-02-27T20:29:35.885Z,-6.30
2018-02-27T20:32:03.351Z,-6.30
2018-02-27T20:34:32.394Z,-6.40
2018-02-27T20:36:59.870Z,-6.40
2018-02-27T20:39:27.324Z,-6.40
2018-02-27T20:41:54.799Z,-6.40
2018-02-27T20:44:22.259Z,-6.40
2018-02-27T20:46:49.735Z,-6.40
2018-02-27T20:49:17.973Z,-6.50
2018-02-27T20:51:45.446Z,-6.50
2018-02-27T20:54:12.926Z,-6.50
2018-02-27T20:56:41.157Z,-6.60
2018-02-27T20:59:08.621Z,-6.60
2018-02-27T21:01:36.085Z,-6.60
2018-02-27T21:04:03.552Z,-6.60
2018-02-27T21:06:31.018Z,-6.70
2018-02-27T21:08:59.253Z,-6.60
2018-02-27T21:11:26.722Z,-6.60
2018-02-27T21:13:54.185Z,-6.70
2018-02-27T21:16:21.645Z,-6.70
2018-02-27T21:18:49.109Z,-6.70
2018-02-27T21:21:16.572Z,-6.70
2018-02-27T21:23:44.801Z,-6.80
2018-02-27T21:26:12.267Z,-6.80
2018-02-27T21:28:39.744Z,-6.80
2018-02-27T21:31:07.201Z,-6.90
2018-02-27T21:33:34.672Z,-6.90
2018-02-27T21:36:02.140Z,-6.90
2018-02-27T21:38:30.381Z,-7.10
2018-02-27T21:40:57.842Z,-7.10
2018-02-27T21:43:25.312Z,-7.10
2018-02-27T21:45:53.445Z,-7.10
2018-02-27T21:48:20.909Z,-7.10
2018-02-27T21:50:49.135Z,-7.20
2018-02-27T21:53:16.601Z,-7.20
2018-02-27T21:55:44.052Z,-7.20
2018-02-27T21:58:11.544Z,-7.20
2018-02-27T22:00:39.039Z,-7.20
2018-02-27T22:03:06.506Z,-7.30
2018-02-27T22:05:34.781Z,-7.30
2018-02-27T22:08:02.256Z,-7.30
2018-02-27T22:10:30.488Z,-7.40
2018-02-27T22:12:57.949Z,-7.40
2018-02-27T22:15:25.409Z,-7.40
2018-02-27T22:17:54.234Z,-7.50
2018-02-27T22:20:22.463Z,-7.60
2018-02-27T22:22:49.978Z,-7.60
2018-02-27T22:25:17.447Z,-7.60
2018-02-27T22:27:44.941Z,-7.70
2018-02-27T22:30:12.427Z,-7.60
2018-02-27T22:32:40.707Z,-7.70
2018-02-27T22:35:08.948Z,-7.70
2018-02-27T22:37:36.411Z,-7.70
2018-02-27T22:40:03.897Z,-7.70
2018-02-27T22:42:32.130Z,-7.70
2018-02-27T22:44:59.632Z,-7.80
2018-02-27T22:47:27.881Z,-7.70
2018-02-27T22:49:55.367Z,-7.80
2018-02-27T22:52:22.834Z,-7.70
2018-02-27T22:54:50.317Z,-7.80
2018-02-27T22:57:17.792Z,-7.80
2018-02-27T22:59:51.965Z,-7.90
2018-02-27T23:02:19.795Z,-7.90
2018-02-27T23:04:47.937Z,-7.90
2018-02-27T23:07:15.427Z,-8.00
2018-02-27T23:09:42.914Z,-8.00
2018-02-27T23:12:10.385Z,-8.10
2018-02-27T23:14:37.871Z,-8.20
2018-02-27T23:17:05.367Z,-8.20
2018-02-27T23:19:33.621Z,-8.10
2018-02-27T23:22:01.107Z,-8.20
2018-02-27T23:24:28.651Z,-8.10
2018-02-27T23:26:57.846Z,-8.10
2018-02-27T23:29:26.972Z,-8.10
2018-02-27T23:31:54.621Z,-8.20
2018-02-27T23:34:25.019Z,-8.10
2018-02-27T23:36:52.478Z,-8.10
2018-02-27T23:39:20.742Z,-8.20
2018-02-27T23:41:48.278Z,-8.20
2018-02-27T23:44:15.982Z,-8.20
2018-02-27T23:46:44.221Z,-8.20
2018-02-27T23:49:11.692Z,-8.20
2018-02-27T23:51:39.208Z,-8.20
2018-02-27T23:54:06.714Z,-8.20
2018-02-27T23:56:34.202Z,-8.30
2018-02-27T23:59:02.105Z,-8.30
